Time;durP1;ratioP1;P1;durP2;ratioP2;P2;SDS_P1;SDS_P2;PMS_P1;PMS_P2;Temp;Humidity;BMP_temperature;BMP_pressure;BME280_temperature;BME280_humidity;BME280_pressure;Samples;Min_cycle;Max_cycle;Signal;HPM_P1;HPM_P2
2022/08/23 00:01:42;;;;;;;4.70;3.40;;;20.30;99.90;;;;;;4996600;28;20705;-73
2022/08/23 00:04:11;;;;;;;4.93;3.78;;;20.30;99.90;;;;;;5006964;28;20217;-70
2022/08/23 00:06:37;;;;;;;4.97;3.72;;;20.20;99.90;;;;;;4996696;28;20331;-71
2022/08/23 00:09:04;;;;;;;6.03;3.90;;;20.30;99.90;;;;;;4993401;28;20209;-72
2022/08/23 00:11:32;;;;;;;6.95;4.13;;;20.20;99.90;;;;;;4998072;28;20221;-71
2022/08/23 00:14:00;;;;;;;5.25;3.92;;;20.20;99.90;;;;;;4997637;28;20210;-75
2022/08/23 00:16:27;;;;;;;7.82;4.13;;;20.30;99.90;;;;;;5000085;28;20302;-71
2022/08/23 00:18:53;;;;;;;5.25;3.65;;;20.20;99.90;;;;;;5000894;28;20287;-70
2022/08/23 00:21:19;;;;;;;5.93;3.58;;;20.30;99.90;;;;;;5001209;28;20293;-71
2022/08/23 00:23:44;;;;;;;5.97;3.70;;;20.20;99.90;;;;;;4999370;28;20695;-71
2022/08/23 00:26:10;;;;;;;8.02;4.15;;;20.30;99.90;;;;;;5002204;28;20212;-73
2022/08/23 00:28:36;;;;;;;7.25;4.13;;;20.30;99.90;;;;;;5015532;28;20754;-70
2022/08/23 00:31:02;;;;;;;6.45;4.15;;;20.30;99.90;;;;;;4997579;28;20718;-72
2022/08/23 00:33:27;;;;;;;10.73;3.75;;;20.30;99.90;;;;;;4999844;28;20789;-72
2022/08/23 00:35:53;;;;;;;6.80;3.83;;;20.20;99.90;;;;;;5006276;28;20209;-71
2022/08/23 00:38:18;;;;;;;5.38;3.38;;;20.10;99.90;;;;;;5001313;28;20213;-72
2022/08/23 00:40:49;;;;;;;5.35;3.72;;;20.10;99.90;;;;;;4996828;28;20217;-73
2022/08/23 00:49:11;;;;;;;11.50;6.85;;;20.10;99.90;;;;;;5009223;28;20188;-72
2022/08/23 00:51:50;;;;;;;5.22;4.32;;;20.20;99.90;;;;;;4999280;28;20217;-72
2022/08/23 00:54:17;;;;;;;7.05;4.10;;;20.10;99.90;;;;;;5003620;28;20209;-76
2022/08/23 00:56:43;;;;;;;5.55;4.57;;;20.10;99.90;;;;;;4991328;28;20217;-74
2022/08/23 00:59:08;;;;;;;5.63;3.80;;;20.10;99.90;;;;;;5000820;28;20201;-76
2022/08/23 01:01:34;;;;;;;5.68;4.03;;;20.10;99.90;;;;;;4997695;28;20221;-71
2022/08/23 01:04:01;;;;;;;5.22;3.60;;;20.00;99.90;;;;;;5016401;28;20185;-71
2022/08/23 01:06:33;;;;;;;7.05;4.15;;;20.10;99.90;;;;;;4995020;28;20197;-70
2022/08/23 01:09:04;;;;;;;8.18;4.07;;;20.10;99.90;;;;;;4996464;28;20201;-73
2022/08/23 01:11:44;;;;;;;7.03;3.53;;;20.10;99.90;;;;;;5000076;28;20212;-71
2022/08/23 01:14:25;;;;;;;5.97;3.95;;;20.00;99.90;;;;;;5017902;28;20251;-73
2022/08/23 01:17:04;;;;;;;10.48;4.20;;;20.10;99.90;;;;;;4983409;28;20240;-71
2022/08/23 01:19:35;;;;;;;6.20;3.50;;;20.10;99.90;;;;;;4988372;28;20213;-70
2022/08/23 01:22:10;;;;;;;7.45;4.20;;;20.00;99.90;;;;;;5002766;28;20220;-70
2022/08/23 01:24:37;;;;;;;8.07;3.83;;;20.00;99.90;;;;;;5000645;28;20546;-69
2022/08/23 01:27:03;;;;;;;9.32;3.90;;;19.90;99.90;;;;;;5001473;28;20219;-71
2022/08/23 01:29:29;;;;;;;7.10;3.88;;;20.00;99.90;;;;;;4998081;28;20209;-71
2022/08/23 01:31:55;;;;;;;5.63;3.60;;;20.10;99.90;;;;;;4993854;28;20245;-68
2022/08/23 01:34:25;;;;;;;7.57;3.80;;;20.00;99.90;;;;;;5000418;28;20216;-81
2022/08/23 01:36:51;;;;;;;4.82;3.13;;;20.00;99.90;;;;;;5001343;28;20216;-71
2022/08/23 01:39:16;;;;;;;6.05;3.45;;;19.90;99.90;;;;;;4999204;28;20237;-71
2022/08/23 01:41:42;;;;;;;5.70;3.40;;;19.90;99.90;;;;;;4997368;28;20213;-71
2022/08/23 01:44:08;;;;;;;7.38;4.13;;;19.90;99.90;;;;;;4995783;28;20690;-71
2022/08/23 01:46:35;;;;;;;5.07;3.83;;;19.90;99.90;;;;;;4999186;28;20220;-72
2022/08/23 01:49:03;;;;;;;6.45;3.55;;;19.90;99.90;;;;;;4998350;28;20530;-71
2022/08/23 01:51:28;;;;;;;4.30;3.35;;;19.80;99.90;;;;;;5000414;28;20217;-72
2022/08/23 01:53:54;;;;;;;4.85;3.20;;;19.80;99.90;;;;;;4999357;28;20634;-72
2022/08/23 01:56:20;;;;;;;6.90;2.78;;;19.80;99.90;;;;;;5000143;28;20218;-71
2022/08/23 01:58:47;;;;;;;5.50;3.05;;;19.90;99.90;;;;;;4995536;28;20222;-70
2022/08/23 02:01:14;;;;;;;6.40;3.03;;;19.90;99.90;;;;;;5001153;28;20224;-73
2022/08/23 02:03:39;;;;;;;5.65;3.40;;;19.80;99.90;;;;;;5002711;28;20654;-72
2022/08/23 02:06:05;;;;;;;4.72;3.20;;;19.70;99.90;;;;;;4995072;28;20245;-74
2022/08/23 02:11:19;;;;;;;4.85;3.22;;;19.70;99.90;;;;;;5001649;28;20767;-75
2022/08/23 02:13:44;;;;;;;8.82;3.95;;;19.80;99.90;;;;;;4998893;28;20206;-70
2022/08/23 02:16:11;;;;;;;4.18;3.40;;;19.70;99.90;;;;;;4989245;28;20196;-72
2022/08/23 02:18:39;;;;;;;6.35;3.55;;;19.80;99.90;;;;;;4997668;28;20284;-70
2022/08/23 02:21:05;;;;;;;7.90;4.63;;;19.70;99.90;;;;;;4967688;28;20737;-71
2022/08/23 02:23:31;;;;;;;4.63;2.78;;;19.70;99.90;;;;;;4971157;28;20233;-71
2022/08/23 02:25:56;;;;;;;5.20;3.30;;;19.70;99.90;;;;;;4977115;28;20209;-71
2022/08/23 02:28:23;;;;;;;4.55;3.17;;;19.70;99.90;;;;;;5003504;28;20489;-71
2022/08/23 02:30:50;;;;;;;5.03;3.03;;;19.70;99.90;;;;;;4995853;28;20198;-71
2022/08/23 02:33:16;;;;;;;6.82;3.40;;;19.70;99.90;;;;;;4986128;28;20205;-72
2022/08/23 02:35:42;;;;;;;3.85;3.10;;;19.70;99.90;;;;;;4989853;28;20208;-72
2022/08/23 02:38:10;;;;;;;4.80;3.05;;;19.70;99.90;;;;;;4996049;28;20228;-76
2022/08/23 02:40:36;;;;;;;9.63;3.58;;;19.60;99.90;;;;;;5001303;28;20344;-71
2022/08/23 02:43:03;;;;;;;6.78;3.95;;;19.60;99.90;;;;;;4990274;28;20234;-71
2022/08/23 02:45:28;;;;;;;7.65;3.60;;;19.70;99.90;;;;;;4996815;28;20203;-71
2022/08/23 02:47:55;;;;;;;9.15;4.35;;;19.70;99.90;;;;;;4990898;28;20205;-70
2022/08/23 02:50:22;;;;;;;6.38;3.42;;;19.60;99.90;;;;;;4995920;28;20624;-70
2022/08/23 02:52:47;;;;;;;7.88;4.97;;;19.70;99.90;;;;;;4996739;28;20206;-71
2022/08/23 02:55:13;;;;;;;6.97;3.63;;;19.60;99.90;;;;;;4995262;28;20239;-70
2022/08/23 02:57:39;;;;;;;6.10;3.30;;;19.70;99.90;;;;;;4992086;28;20193;-70
2022/08/23 03:00:07;;;;;;;6.95;3.47;;;19.70;99.90;;;;;;4996571;28;20242;-70
2022/08/23 03:02:33;;;;;;;7.57;3.90;;;19.70;99.90;;;;;;4994664;28;20264;-70
2022/08/23 03:04:59;;;;;;;6.43;4.45;;;19.70;99.90;;;;;;4994815;28;20218;-73
2022/08/23 03:07:25;;;;;;;7.80;5.45;;;19.70;99.90;;;;;;4987304;28;20212;-71
2022/08/23 03:09:50;;;;;;;7.22;4.15;;;19.70;99.90;;;;;;4988366;28;20252;-71
2022/08/23 03:12:16;;;;;;;6.28;3.97;;;19.70;99.90;;;;;;5018775;28;20201;-75
2022/08/23 03:14:41;;;;;;;4.75;3.58;;;19.60;99.90;;;;;;4992002;28;20201;-71
2022/08/23 03:17:07;;;;;;;7.70;3.50;;;19.70;99.90;;;;;;5001025;28;20308;-71
2022/08/23 03:19:33;;;;;;;7.00;3.97;;;19.70;99.90;;;;;;4995377;28;20356;-73
2022/08/23 03:21:59;;;;;;;3.72;3.08;;;19.70;99.90;;;;;;5004557;28;20220;-74
2022/08/23 03:24:24;;;;;;;7.50;3.40;;;19.70;99.90;;;;;;4999091;28;20177;-76
2022/08/23 03:26:50;;;;;;;9.40;4.03;;;19.70;99.90;;;;;;4992924;28;20291;-71
2022/08/23 03:29:16;;;;;;;6.25;3.70;;;19.60;99.90;;;;;;4988090;28;20235;-71
2022/08/23 03:31:41;;;;;;;4.38;3.40;;;19.50;99.90;;;;;;4995118;28;20221;-75
2022/08/23 03:34:07;;;;;;;7.13;4.18;;;19.50;99.90;;;;;;4995970;28;20181;-72
2022/08/23 03:36:33;;;;;;;7.68;4.72;;;19.50;99.90;;;;;;4994614;28;20174;-73
2022/08/23 03:38:59;;;;;;;8.50;4.65;;;19.50;99.90;;;;;;5000512;28;20913;-72
2022/08/23 03:41:26;;;;;;;8.98;4.35;;;19.60;99.90;;;;;;4994615;28;20219;-72
2022/08/23 03:43:52;;;;;;;8.50;4.47;;;19.50;99.90;;;;;;5000921;28;20213;-71
2022/08/23 03:46:24;;;;;;;9.50;4.53;;;19.50;99.90;;;;;;4995002;28;20747;-73
2022/08/23 03:48:52;;;;;;;10.30;6.03;;;19.50;99.90;;;;;;4988212;28;20711;-71
2022/08/23 03:51:19;;;;;;;10.32;4.65;;;19.50;99.90;;;;;;5019220;23;20225;-72
2022/08/23 03:53:46;;;;;;;10.10;4.00;;;19.50;99.90;;;;;;5021145;28;20244;-72
2022/08/23 03:56:32;;;;;;;7.00;4.47;;;19.50;99.90;;;;;;5024038;28;20208;-72
2022/08/23 03:59:00;;;;;;;7.78;4.53;;;19.60;99.90;;;;;;5020363;28;20267;-73
2022/08/23 04:01:25;;;;;;;8.75;4.88;;;19.60;99.90;;;;;;5012461;28;20237;-74
2022/08/23 04:03:51;;;;;;;12.70;5.63;;;19.60;99.90;;;;;;5006861;28;20221;-72
2022/08/23 04:06:17;;;;;;;7.28;4.72;;;19.60;99.90;;;;;;5007642;28;20213;-73
2022/08/23 04:08:44;;;;;;;8.63;4.43;;;19.50;99.90;;;;;;5019934;28;20222;-71
2022/08/23 04:11:11;;;;;;;8.68;4.93;;;19.50;99.90;;;;;;5012483;28;20649;-71
2022/08/23 04:13:38;;;;;;;7.32;4.20;;;19.50;99.90;;;;;;5006062;28;20213;-72
2022/08/23 04:16:04;;;;;;;9.20;5.22;;;19.50;99.90;;;;;;5006901;28;20183;-72
2022/08/23 04:18:31;;;;;;;7.80;4.10;;;19.50;99.90;;;;;;5003844;28;20301;-72
2022/08/23 04:20:59;;;;;;;10.23;3.90;;;19.50;99.90;;;;;;5009444;28;20220;-72
2022/08/23 04:23:26;;;;;;;6.53;4.07;;;19.50;99.90;;;;;;5000958;28;20207;-72
2022/08/23 04:25:56;;;;;;;10.52;4.00;;;19.60;99.90;;;;;;5003420;28;20699;-72
2022/08/23 04:28:22;;;;;;;7.53;4.60;;;19.70;99.90;;;;;;5000614;28;20217;-71
2022/08/23 04:30:49;;;;;;;6.85;4.45;;;19.70;99.90;;;;;;5005528;28;20575;-72
2022/08/23 04:33:16;;;;;;;8.98;5.57;;;19.70;99.90;;;;;;5007685;28;20295;-72
2022/08/23 04:35:42;;;;;;;6.72;4.13;;;19.70;99.90;;;;;;5007967;28;20229;-71
2022/08/23 04:38:08;;;;;;;9.10;4.32;;;19.60;99.90;;;;;;5004859;28;20656;-71
2022/08/23 04:43:18;;;;;;;6.10;3.75;;;19.60;99.90;;;;;;5007206;28;20716;-72
2022/08/23 04:45:44;;;;;;;5.55;3.83;;;19.60;99.90;;;;;;5007293;28;20188;-72
2022/08/23 04:48:09;;;;;;;6.03;3.88;;;19.50;99.90;;;;;;5002656;28;20244;-72
2022/08/23 04:50:35;;;;;;;6.82;4.13;;;19.60;99.90;;;;;;5008951;28;20213;-72
2022/08/23 04:53:01;;;;;;;6.85;4.35;;;19.60;99.90;;;;;;5008228;28;20304;-72
2022/08/23 04:55:27;;;;;;;6.85;3.85;;;19.60;99.90;;;;;;5018515;28;20205;-72
2022/08/23 04:57:53;;;;;;;7.75;4.50;;;19.60;99.90;;;;;;5007812;28;20255;-72
2022/08/23 05:00:20;;;;;;;10.50;5.20;;;19.60;99.90;;;;;;5007085;28;20177;-72
2022/08/23 05:02:45;;;;;;;8.00;4.82;;;19.60;99.90;;;;;;5006847;28;20200;-71
2022/08/23 05:05:11;;;;;;;7.57;4.70;;;19.50;99.90;;;;;;5007358;28;20212;-72
2022/08/23 05:07:38;;;;;;;9.80;4.80;;;19.60;99.90;;;;;;5008937;28;20212;-72
2022/08/23 05:10:06;;;;;;;12.45;6.00;;;19.60;99.90;;;;;;5008110;28;20579;-72
2022/08/23 05:12:32;;;;;;;7.85;4.47;;;19.60;99.90;;;;;;5004234;28;20585;-71
2022/08/23 05:14:58;;;;;;;7.78;4.20;;;19.70;99.90;;;;;;5007320;28;20780;-71
2022/08/23 05:17:24;;;;;;;5.28;3.50;;;19.80;99.90;;;;;;5008451;28;20573;-71
2022/08/23 05:19:49;;;;;;;8.00;4.55;;;19.80;99.90;;;;;;5005182;28;20274;-72
2022/08/23 05:22:15;;;;;;;9.15;4.72;;;19.70;99.90;;;;;;5001570;28;20221;-72
2022/08/23 05:24:41;;;;;;;9.55;4.50;;;19.80;99.90;;;;;;5009757;28;20180;-72
2022/08/23 05:27:06;;;;;;;9.60;4.80;;;19.80;99.90;;;;;;5005883;28;20298;-72
2022/08/23 05:29:32;;;;;;;10.27;4.22;;;19.80;99.90;;;;;;5002312;28;20201;-72
2022/08/23 05:31:57;;;;;;;11.00;4.63;;;19.90;99.90;;;;;;5003722;28;20213;-71
2022/08/23 05:34:24;;;;;;;7.45;4.55;;;19.90;99.90;;;;;;5007767;28;20263;-72
2022/08/23 05:36:50;;;;;;;8.25;4.13;;;19.90;99.90;;;;;;5006902;28;20188;-72
2022/08/23 05:39:15;;;;;;;10.32;5.05;;;20.00;99.90;;;;;;5001701;28;20611;-72
2022/08/23 05:41:41;;;;;;;8.98;4.53;;;20.00;99.90;;;;;;5008956;28;20308;-71
2022/08/23 05:44:09;;;;;;;7.95;4.38;;;20.10;99.90;;;;;;5005066;28;20631;-71
2022/08/23 05:46:35;;;;;;;9.77;5.15;;;20.20;99.90;;;;;;5003425;28;20213;-72
2022/08/23 05:49:00;;;;;;;6.10;4.30;;;20.30;99.90;;;;;;5003317;28;20255;-71
2022/08/23 05:51:29;;;;;;;9.43;4.43;;;20.40;99.90;;;;;;5007423;28;20213;-71
2022/08/23 05:53:58;;;;;;;8.18;4.40;;;20.50;99.90;;;;;;5006353;28;20592;-69
2022/08/23 05:56:33;;;;;;;6.25;3.67;;;20.70;99.90;;;;;;5000621;28;20228;-71
2022/08/23 05:59:02;;;;;;;7.07;4.05;;;20.80;99.90;;;;;;5009947;28;20266;-70
2022/08/23 06:01:30;;;;;;;5.30;3.58;;;21.10;99.90;;;;;;5006596;28;20225;-73
2022/08/23 06:03:59;;;;;;;9.18;4.07;;;21.20;99.90;;;;;;5009137;28;20185;-70
2022/08/23 06:06:25;;;;;;;8.10;4.25;;;21.30;99.90;;;;;;5009133;28;20195;-70
2022/08/23 06:08:51;;;;;;;7.75;3.75;;;21.40;99.90;;;;;;5009037;28;20217;-71
2022/08/23 06:11:23;;;;;;;7.75;3.95;;;21.50;99.90;;;;;;5003775;28;20292;-72
2022/08/23 06:13:52;;;;;;;8.10;4.22;;;21.60;99.90;;;;;;5002527;28;20205;-71
2022/08/23 06:16:22;;;;;;;6.13;3.80;;;21.70;99.90;;;;;;5005417;28;20213;-72
2022/08/23 06:18:49;;;;;;;6.97;4.65;;;21.80;99.90;;;;;;5002606;28;20215;-72
2022/08/23 06:21:15;;;;;;;9.55;4.57;;;22.10;99.90;;;;;;5001764;28;20695;-72
2022/08/23 06:23:42;;;;;;;7.15;3.70;;;22.20;99.90;;;;;;5005258;28;20744;-72
2022/08/23 06:26:16;;;;;;;6.78;3.92;;;22.20;99.90;;;;;;5008996;28;20215;-71
2022/08/23 06:28:47;;;;;;;4.57;3.72;;;22.10;99.90;;;;;;5004659;28;20227;-72
2022/08/23 06:31:13;;;;;;;11.38;6.75;;;21.80;99.90;;;;;;5000433;28;20639;-73
2022/08/23 06:33:41;;;;;;;10.05;5.35;;;21.70;99.90;;;;;;5007935;28;20213;-72
2022/08/23 06:36:10;;;;;;;6.03;4.30;;;21.60;99.90;;;;;;5000857;28;20213;-73
2022/08/23 06:38:36;;;;;;;10.52;4.43;;;21.60;99.90;;;;;;5007592;28;20209;-73
2022/08/23 06:41:05;;;;;;;10.98;5.32;;;21.50;99.90;;;;;;5006003;28;20720;-72
2022/08/23 06:43:31;;;;;;;13.90;4.78;;;21.50;99.90;;;;;;5005588;28;20221;-73
2022/08/23 06:46:27;;;;;;;8.10;4.53;;;21.60;99.90;;;;;;5005206;28;20169;-72
2022/08/23 06:48:54;;;;;;;10.00;4.88;;;21.50;99.90;;;;;;4987245;28;20189;-72
2022/08/23 06:51:32;;;;;;;11.63;4.50;;;21.50;99.90;;;;;;5006975;28;20629;-73
2022/08/23 06:54:00;;;;;;;10.35;4.82;;;21.50;99.90;;;;;;5004928;28;20267;-71
2022/08/23 06:56:27;;;;;;;8.32;4.68;;;21.60;99.90;;;;;;5000176;28;20201;-72
2022/08/23 06:58:53;;;;;;;10.80;4.78;;;21.60;99.90;;;;;;5009217;28;20213;-72
2022/08/23 07:01:33;;;;;;;10.70;5.05;;;21.70;99.90;;;;;;5006763;28;20222;-72
2022/08/23 07:04:01;;;;;;;9.60;6.13;;;21.70;99.90;;;;;;5002830;28;20169;-73
2022/08/23 07:06:27;;;;;;;7.93;4.90;;;21.50;99.90;;;;;;5003361;28;20230;-73
2022/08/23 07:08:54;;;;;;;8.85;4.05;;;21.40;99.90;;;;;;5007230;28;20200;-72
2022/08/23 07:11:20;;;;;;;7.05;4.07;;;21.40;99.90;;;;;;5005902;28;20213;-73
2022/08/23 07:13:47;;;;;;;9.95;3.80;;;21.50;99.90;;;;;;5001787;28;20252;-72
2022/08/23 07:16:14;;;;;;;10.80;3.63;;;21.80;99.90;;;;;;5005152;28;20231;-72
2022/08/23 07:18:40;;;;;;;6.50;3.45;;;21.70;99.90;;;;;;5005320;28;20212;-72
2022/08/23 07:21:06;;;;;;;7.30;4.32;;;21.80;99.90;;;;;;5002453;28;20221;-73
2022/08/23 07:23:33;;;;;;;3.97;3.15;;;21.80;99.90;;;;;;5003623;28;20575;-73
2022/08/23 07:26:01;;;;;;;11.35;5.47;;;21.90;99.90;;;;;;5012052;28;20250;-72
2022/08/23 07:28:28;;;;;;;7.18;4.07;;;22.10;99.90;;;;;;5007017;28;20205;-74
2022/08/23 07:30:57;;;;;;;9.35;4.50;;;22.10;99.90;;;;;;5006049;28;20593;-72
2022/08/23 07:33:23;;;;;;;8.55;4.70;;;22.20;99.90;;;;;;5006962;28;20260;-70
2022/08/23 07:35:52;;;;;;;10.07;3.85;;;22.30;99.90;;;;;;5009932;28;20340;-70
2022/08/23 07:38:17;;;;;;;7.25;3.83;;;22.40;99.90;;;;;;5002753;28;20213;-70
2022/08/23 07:40:43;;;;;;;7.10;4.70;;;22.30;99.90;;;;;;5005405;28;20567;-71
2022/08/23 07:43:09;;;;;;;7.38;4.70;;;22.40;99.90;;;;;;5011894;28;20181;-71
2022/08/23 07:45:36;;;;;;;8.63;5.03;;;22.10;99.90;;;;;;5009278;28;20661;-70
2022/08/23 07:48:02;;;;;;;8.80;4.25;;;22.00;99.90;;;;;;5004400;28;20291;-71
2022/08/23 07:50:28;;;;;;;8.70;3.97;;;22.10;99.90;;;;;;5005332;28;20717;-70
2022/08/23 07:52:54;;;;;;;4.85;3.50;;;22.20;99.90;;;;;;5008762;28;20231;-70
2022/08/23 07:55:20;;;;;;;7.38;3.30;;;22.30;99.90;;;;;;5004701;28;20629;-72
2022/08/23 07:57:47;;;;;;;6.78;3.40;;;22.60;99.90;;;;;;5008978;28;20197;-71
2022/08/23 08:00:13;;;;;;;4.43;2.92;;;22.90;99.90;;;;;;5009439;28;20212;-71
2022/08/23 08:02:39;;;;;;;7.15;3.40;;;23.20;99.90;;;;;;5007069;28;20209;-72
2022/08/23 08:05:06;;;;;;;7.25;3.13;;;23.40;99.90;;;;;;5020065;28;20205;-70
2022/08/23 08:07:31;;;;;;;6.45;4.00;;;23.30;99.90;;;;;;5026643;28;20213;-71
2022/08/23 08:09:57;;;;;;;7.13;3.72;;;23.10;99.90;;;;;;5014161;28;20254;-71
2022/08/23 08:12:23;;;;;;;8.20;3.38;;;23.30;99.90;;;;;;5001472;28;20227;-70
2022/08/23 08:14:49;;;;;;;7.13;3.58;;;23.50;99.90;;;;;;5005471;28;20213;-71
2022/08/23 08:17:16;;;;;;;6.78;3.10;;;23.70;99.90;;;;;;5007134;28;20208;-69
2022/08/23 08:19:42;;;;;;;6.22;3.90;;;23.60;99.90;;;;;;5007404;28;20197;-71
2022/08/23 08:22:07;;;;;;;6.20;3.20;;;23.60;99.90;;;;;;5003841;28;20211;-72
2022/08/23 08:24:33;;;;;;;5.25;3.10;;;23.90;99.90;;;;;;5008080;28;20204;-71
2022/08/23 08:26:59;;;;;;;5.00;3.20;;;24.00;99.90;;;;;;5010366;28;20219;-71
2022/08/23 08:29:25;;;;;;;4.45;2.70;;;23.90;99.90;;;;;;5003928;28;20206;-71
2022/08/23 08:31:50;;;;;;;6.68;2.85;;;23.90;99.90;;;;;;5004671;28;20298;-71
2022/08/23 08:34:17;;;;;;;5.32;2.72;;;23.80;99.90;;;;;;5009715;28;20216;-72
2022/08/23 08:36:48;;;;;;;6.05;3.10;;;24.10;99.90;;;;;;5011391;28;20208;-73
2022/08/23 08:39:17;;;;;;;6.70;3.13;;;24.20;99.90;;;;;;5003061;28;20230;-71
2022/08/23 08:41:55;;;;;;;6.90;3.33;;;24.40;99.90;;;;;;5010852;28;20296;-70
2022/08/23 08:44:33;;;;;;;5.47;2.80;;;24.40;99.90;;;;;;5004852;28;20283;-72
2022/08/23 08:46:59;;;;;;;5.43;2.60;;;24.70;99.90;;;;;;5017823;28;20666;-70
2022/08/23 08:49:38;;;;;;;5.53;3.15;;;25.00;99.90;;;;;;5007520;28;20623;-71
2022/08/23 08:52:23;;;;;;;10.77;6.30;;;25.00;99.90;;;;;;5009522;28;20280;-71
2022/08/23 08:54:53;;;;;;;5.30;3.40;;;25.00;99.90;;;;;;5008587;28;20169;-70
2022/08/23 08:57:21;;;;;;;6.93;2.97;;;24.90;99.90;;;;;;5005357;28;20217;-70
2022/08/23 09:00:00;;;;;;;5.35;3.15;;;25.00;99.90;;;;;;5004766;28;20262;-69
2022/08/23 09:02:32;;;;;;;7.30;3.55;;;25.30;99.90;;;;;;5005559;28;20698;-70
2022/08/23 09:05:01;;;;;;;3.70;2.58;;;25.30;99.90;;;;;;5004856;28;20212;-70
2022/08/23 09:07:52;;;;;;;6.18;4.43;;;25.40;99.90;;;;;;5009417;28;20213;-69
2022/08/23 09:10:36;;;;;;;5.35;2.97;;;25.60;99.90;;;;;;5003290;28;20213;-71
2022/08/23 09:13:14;;;;;;;5.90;2.60;;;25.70;99.90;;;;;;5008466;28;20312;-69
2022/08/23 09:16:03;;;;;;;5.60;2.58;;;25.60;99.90;;;;;;5004860;28;20182;-70
2022/08/23 09:18:33;;;;;;;5.15;2.63;;;25.60;99.90;;;;;;5008919;28;20696;-70
2022/08/23 09:21:01;;;;;;;5.07;2.30;;;25.80;99.90;;;;;;5004843;28;20209;-70
2022/08/23 09:23:35;;;;;;;8.55;3.47;;;25.80;99.90;;;;;;5009966;28;20588;-71
2022/08/23 09:26:04;;;;;;;5.30;2.80;;;25.90;99.90;;;;;;5007862;28;20223;-70
2022/08/23 09:28:34;;;;;;;11.25;3.70;;;25.80;99.90;;;;;;4998300;28;20318;-70
2022/08/23 09:31:00;;;;;;;64.75;8.55;;;25.90;99.90;;;;;;5006075;28;20215;-70
2022/08/23 09:33:37;;;;;;;6.35;2.47;;;26.10;99.90;;;;;;5003474;28;20177;-70
2022/08/23 09:36:03;;;;;;;4.90;2.88;;;25.60;99.90;;;;;;5006617;28;20561;-69
2022/08/23 09:38:29;;;;;;;9.88;3.92;;;25.80;99.90;;;;;;5002021;28;20213;-70
2022/08/23 09:40:55;;;;;;;11.00;3.53;;;25.90;99.90;;;;;;5010091;28;20209;-70
2022/08/23 09:43:25;;;;;;;13.63;3.72;;;26.00;99.90;;;;;;5008072;28;20736;-71
2022/08/23 09:45:50;;;;;;;6.18;3.15;;;25.90;99.90;;;;;;5008807;28;20173;-69
2022/08/23 09:48:42;;;;;;;4.53;2.60;;;25.90;99.90;;;;;;5006452;28;20181;-70
2022/08/23 09:51:18;;;;;;;5.05;3.05;;;25.90;99.90;;;;;;5008708;28;20209;-70
2022/08/23 09:53:52;;;;;;;4.88;3.22;;;25.80;99.90;;;;;;5029929;23;20295;-67
2022/08/23 09:56:25;;;;;;;8.10;3.80;;;25.90;99.90;;;;;;5029050;28;20208;-67
2022/08/23 09:58:52;;;;;;;5.55;3.00;;;25.60;99.90;;;;;;5033772;28;20208;-67
2022/08/23 10:01:21;;;;;;;6.18;4.07;;;25.50;99.90;;;;;;5032374;28;20295;-67
2022/08/23 10:04:05;;;;;;;8.63;3.60;;;26.00;99.90;;;;;;5025884;28;20208;-67
2022/08/23 10:06:33;;;;;;;5.18;2.88;;;26.20;99.90;;;;;;5029934;28;20222;-67
2022/08/23 10:09:03;;;;;;;5.90;3.10;;;26.30;99.90;;;;;;5034575;28;20267;-67
2022/08/23 10:11:35;;;;;;;6.15;3.10;;;26.30;99.90;;;;;;5029577;28;20223;-68
2022/08/23 10:14:00;;;;;;;3.90;2.53;;;26.20;99.90;;;;;;5022536;28;20208;-67
2022/08/23 10:16:50;;;;;;;18.00;3.72;;;26.10;99.90;;;;;;5033273;28;20200;-67
2022/08/23 10:19:24;;;;;;;18.42;3.90;;;26.50;99.90;;;;;;5026714;28;20321;-68
2022/08/23 10:22:02;;;;;;;4.50;2.65;;;26.50;99.90;;;;;;5020780;28;20179;-67
2022/08/23 10:24:37;;;;;;;8.52;2.72;;;26.50;99.90;;;;;;5035198;28;20215;-68
2022/08/23 10:29:35;;;;;;;6.35;4.57;;;26.60;99.90;;;;;;5033315;28;20249;-67
2022/08/23 10:30:22;;;;;;;8.57;3.75;;;26.50;99.90;;;;;;5027999;28;20218;-67
2022/08/23 10:33:00;;;;;;;6.45;3.53;;;26.30;99.90;;;;;;5046174;28;20231;-67
2022/08/23 10:35:31;;;;;;;9.27;7.45;;;26.20;99.90;;;;;;5032851;28;20689;-67
2022/08/23 10:38:21;;;;;;;8.73;4.40;;;26.10;99.90;;;;;;5026735;28;20555;-67
2022/08/23 10:41:02;;;;;;;5.00;3.25;;;26.20;99.90;;;;;;5032514;28;20200;-67
2022/08/23 10:43:42;;;;;;;5.55;3.03;;;26.40;99.90;;;;;;5032359;28;20213;-67
2022/08/23 10:46:09;;;;;;;8.55;5.03;;;26.10;99.90;;;;;;5025694;28;20246;-67
2022/08/23 10:48:50;;;;;;;4.90;3.67;;;26.10;99.90;;;;;;5023784;28;20204;-67
2022/08/23 10:51:17;;;;;;;6.18;3.63;;;26.10;99.90;;;;;;5030813;28;20196;-67
2022/08/23 10:53:47;;;;;;;4.05;3.00;;;26.20;99.90;;;;;;5031145;28;20216;-68
2022/08/23 10:56:19;;;;;;;7.82;4.35;;;26.20;99.90;;;;;;5023084;28;20288;-67
2022/08/23 10:58:55;;;;;;;5.57;2.95;;;26.10;99.90;;;;;;5035815;28;20208;-67
2022/08/23 11:01:42;;;;;;;5.85;4.20;;;26.10;99.90;;;;;;5037422;28;20207;-67
2022/08/23 11:04:20;;;;;;;4.93;2.78;;;26.50;99.90;;;;;;5028622;28;20238;-67
2022/08/23 11:06:53;;;;;;;6.60;2.67;;;26.90;99.90;;;;;;5037202;28;20189;-67
2022/08/23 11:09:18;;;;;;;7.10;2.00;;;27.40;99.90;;;;;;5035108;28;20200;-67
2022/08/23 11:12:07;;;;;;;2.40;1.90;;;27.50;99.90;;;;;;5032831;28;20203;-68
2022/08/23 11:14:38;;;;;;;4.25;2.42;;;27.60;99.90;;;;;;5026632;28;20240;-68
2022/08/23 11:17:07;;;;;;;3.67;2.38;;;27.40;99.90;;;;;;5038741;28;20892;-67
2022/08/23 11:19:51;;;;;;;5.82;2.78;;;26.90;99.90;;;;;;5032280;28;20227;-67
2022/08/23 11:22:21;;;;;;;6.07;2.20;;;26.80;99.90;;;;;;5030240;28;20217;-70
2022/08/23 11:24:52;;;;;;;6.38;2.40;;;26.40;99.90;;;;;;5038315;28;20195;-71
2022/08/23 11:27:37;;;;;;;4.00;2.85;;;26.10;99.90;;;;;;5033022;28;20660;-68
2022/08/23 11:30:31;;;;;;;4.65;2.10;;;26.40;99.90;;;;;;5028217;28;20673;-69
2022/08/23 11:33:14;;;;;;;5.50;2.47;;;26.60;99.90;;;;;;5036615;28;20299;-70
2022/08/23 11:35:46;;;;;;;2.65;1.80;;;26.70;99.90;;;;;;5037713;28;20197;-71
2022/08/23 11:38:13;;;;;;;5.15;2.20;;;26.60;99.90;;;;;;5027738;28;20299;-75
2022/08/23 11:40:41;;;;;;;4.18;2.22;;;27.00;99.90;;;;;;5032589;28;20661;-71
2022/08/23 11:43:26;;;;;;;4.35;1.65;;;27.30;99.90;;;;;;5034259;28;20275;-70
2022/08/23 11:45:52;;;;;;;6.43;2.40;;;27.40;99.90;;;;;;5033605;28;20178;-66
2022/08/23 11:48:35;;;;;;;2.58;2.05;;;27.70;99.90;;;;;;5033848;28;20259;-67
2022/08/23 11:51:30;;;;;;;3.53;2.20;;;27.80;99.90;;;;;;5034360;28;20738;-71
2022/08/23 11:54:34;;;;;;;3.38;1.80;;;27.60;99.90;;;;;;5030994;28;20227;-72
2022/08/23 11:57:18;;;;;;;4.53;2.22;;;27.50;99.90;;;;;;5025500;28;20234;-71
2022/08/23 12:00:16;;;;;;;4.90;2.17;;;27.50;99.90;;;;;;5034652;28;20199;-70
2022/08/23 12:03:00;;;;;;;5.78;2.17;;;27.00;99.90;;;;;;5034865;28;20213;-68
2022/08/23 12:06:01;;;;;;;4.30;2.53;;;27.10;99.90;;;;;;5027569;28;20283;-70
2022/08/23 12:08:44;;;;;;;4.63;2.53;;;27.20;99.90;;;;;;5032464;28;20721;-70
2022/08/23 12:11:10;;;;;;;5.60;3.17;;;26.90;99.90;;;;;;5032677;28;20717;-68
2022/08/23 12:13:47;;;;;;;4.00;2.33;;;26.60;99.90;;;;;;5033192;28;20585;-69
2022/08/23 12:16:12;;;;;;;5.07;2.83;;;26.50;99.90;;;;;;5032909;28;20212;-70
2022/08/23 12:18:43;;;;;;;4.38;2.97;;;26.60;99.90;;;;;;5034664;28;20692;-70
2022/08/23 12:21:21;;;;;;;4.90;2.90;;;26.50;99.90;;;;;;5027461;28;20197;-70
2022/08/23 12:23:53;;;;;;;4.30;2.92;;;26.10;99.90;;;;;;5035860;28;20207;-69
2022/08/23 12:26:25;;;;;;;4.82;2.70;;;25.70;99.90;;;;;;5034910;28;20212;-69
2022/08/23 12:29:00;;;;;;;2.30;1.80;;;25.70;99.90;;;;;;5030208;28;20685;-68
2022/08/23 12:31:45;;;;;;;4.30;1.98;;;26.10;99.90;;;;;;5023731;28;20576;-66
2022/08/23 12:34:31;;;;;;;5.85;2.40;;;26.20;99.90;;;;;;5027588;28;20235;-68
2022/08/23 12:37:03;;;;;;;3.45;2.10;;;26.30;99.90;;;;;;5030488;28;20171;-67
2022/08/23 12:39:34;;;;;;;3.10;2.13;;;26.40;99.90;;;;;;5025133;28;20196;-71
2022/08/23 12:42:15;;;;;;;2.75;2.30;;;26.50;99.90;;;;;;5036379;28;20265;-68
2022/08/23 12:44:57;;;;;;;4.07;1.95;;;26.70;99.90;;;;;;5032533;28;20216;-69
2022/08/23 12:47:23;;;;;;;3.05;1.83;;;26.80;99.90;;;;;;5028444;28;20704;-70
2022/08/23 12:50:05;;;;;;;5.80;2.47;;;26.80;99.90;;;;;;5030296;28;20258;-70
2022/08/23 12:52:36;;;;;;;5.07;2.90;;;26.70;99.90;;;;;;5034391;28;20292;-70
2022/08/23 12:55:02;;;;;;;3.55;2.67;;;26.70;99.90;;;;;;5032614;28;20645;-70
2022/08/23 12:57:34;;;;;;;5.53;2.30;;;26.80;99.90;;;;;;5027474;28;20180;-70
2022/08/23 13:00:21;;;;;;;3.78;2.42;;;26.70;99.90;;;;;;5038366;28;20215;-76
2022/08/23 13:02:59;;;;;;;4.63;2.38;;;26.60;99.90;;;;;;5009190;28;20201;-71
2022/08/23 13:05:33;;;;;;;3.33;2.65;;;26.40;99.90;;;;;;5010551;28;20677;-69
2022/08/23 13:08:02;;;;;;;5.82;2.90;;;26.50;99.90;;;;;;5026077;28;20231;-74
2022/08/23 13:10:29;;;;;;;6.60;3.38;;;26.20;99.90;;;;;;5036307;28;20209;-71
2022/08/23 13:12:54;;;;;;;4.15;2.20;;;25.90;99.90;;;;;;5025988;28;20215;-71